sensor_id;sensor_type;location;lat;lon;timestamp;pressure;altitude;pressure_sealevel;temperature;humidity
54556;BME280;57291;37.520;15.106;2023-04-01T00:00:07;100947.63;;;15.72;51.96
54556;BME280;57291;37.520;15.106;2023-04-01T00:02:39;100947.00;;;15.66;52.18
54556;BME280;57291;37.520;15.106;2023-04-01T00:05:08;100949.53;;;15.63;52.02
54556;BME280;57291;37.520;15.106;2023-04-01T00:07:37;100938.91;;;15.61;51.90
54556;BME280;57291;37.520;15.106;2023-04-01T00:10:06;100941.13;;;15.59;51.63
54556;BME280;57291;37.520;15.106;2023-04-01T00:12:35;100946.97;;;15.58;51.41
54556;BME280;57291;37.520;15.106;2023-04-01T00:15:03;100939.53;;;15.58;51.29
54556;BME280;57291;37.520;15.106;2023-04-01T00:17:30;100931.97;;;15.55;51.06
54556;BME280;57291;37.520;15.106;2023-04-01T00:19:58;100929.88;;;15.52;50.75
54556;BME280;57291;37.520;15.106;2023-04-01T00:22:25;100926.50;;;15.55;50.58
54556;BME280;57291;37.520;15.106;2023-04-01T00:24:53;100928.75;;;15.53;50.56
54556;BME280;57291;37.520;15.106;2023-04-01T00:27:21;100926.66;;;15.50;50.82
54556;BME280;57291;37.520;15.106;2023-04-01T00:29:48;100923.09;;;15.49;50.44
54556;BME280;57291;37.520;15.106;2023-04-01T00:32:15;100923.28;;;15.53;50.21
54556;BME280;57291;37.520;15.106;2023-04-01T00:34:42;100927.94;;;15.53;50.18
54556;BME280;57291;37.520;15.106;2023-04-01T00:37:11;100934.25;;;15.53;50.13
54556;BME280;57291;37.520;15.106;2023-04-01T00:39:38;100933.41;;;15.53;50.06
54556;BME280;57291;37.520;15.106;2023-04-01T00:42:05;100932.16;;;15.50;50.21
54556;BME280;57291;37.520;15.106;2023-04-01T00:44:34;100932.16;;;15.50;50.18
54556;BME280;57291;37.520;15.106;2023-04-01T00:47:01;100933.91;;;15.46;50.28
54556;BME280;57291;37.520;15.106;2023-04-01T00:49:34;100929.06;;;15.43;50.27
54556;BME280;57291;37.520;15.106;2023-04-01T00:52:04;100929.41;;;15.41;50.48
54556;BME280;57291;37.520;15.106;2023-04-01T00:54:33;100939.38;;;15.46;50.28
54556;BME280;57291;37.520;15.106;2023-04-01T00:57:19;100930.69;;;15.53;50.07
54556;BME280;57291;37.520;15.106;2023-04-01T00:59:49;100926.66;;;15.59;49.94
54556;BME280;57291;37.520;15.106;2023-04-01T01:02:19;100930.53;;;15.58;50.01
54556;BME280;57291;37.520;15.106;2023-04-01T01:04:47;100920.06;;;15.60;50.04
54556;BME280;57291;37.520;15.106;2023-04-01T01:07:46;100916.22;;;15.69;49.91
54556;BME280;57291;37.520;15.106;2023-04-01T01:10:45;100913.28;;;15.75;49.92
54556;BME280;57291;37.520;15.106;2023-04-01T01:16:29;100908.75;;;15.79;49.90
54556;BME280;57291;37.520;15.106;2023-04-01T01:21:51;100886.38;;;15.77;50.33
54556;BME280;57291;37.520;15.106;2023-04-01T01:24:35;100882.16;;;15.79;50.34
54556;BME280;57291;37.520;15.106;2023-04-01T01:27:17;100877.66;;;15.75;50.59
54556;BME280;57291;37.520;15.106;2023-04-01T01:35:28;100870.59;;;15.74;50.71
54556;BME280;57291;37.520;15.106;2023-04-01T01:38:01;100866.56;;;15.71;50.82
54556;BME280;57291;37.520;15.106;2023-04-01T01:40:32;100872.50;;;15.64;51.00
54556;BME280;57291;37.520;15.106;2023-04-01T01:43:05;100864.13;;;15.61;51.11
54556;BME280;57291;37.520;15.106;2023-04-01T01:45:36;100857.69;;;15.57;51.50
54556;BME280;57291;37.520;15.106;2023-04-01T01:48:07;100867.81;;;15.56;51.50
54556;BME280;57291;37.520;15.106;2023-04-01T01:50:37;100864.78;;;15.58;51.34
54556;BME280;57291;37.520;15.106;2023-04-01T01:53:12;100869.13;;;15.59;51.25
54556;BME280;57291;37.520;15.106;2023-04-01T01:55:42;100869.91;;;15.59;51.25
54556;BME280;57291;37.520;15.106;2023-04-01T01:58:16;100851.38;;;15.56;51.42
54556;BME280;57291;37.520;15.106;2023-04-01T02:00:48;100852.72;;;15.50;51.96
54556;BME280;57291;37.520;15.106;2023-04-01T02:03:20;100845.59;;;15.49;52.13
54556;BME280;57291;37.520;15.106;2023-04-01T02:05:50;100835.31;;;15.46;52.13
54556;BME280;57291;37.520;15.106;2023-04-01T02:08:22;100833.69;;;15.45;52.39
54556;BME280;57291;37.520;15.106;2023-04-01T02:11:04;100817.44;;;15.40;52.85
54556;BME280;57291;37.520;15.106;2023-04-01T02:13:53;100826.31;;;15.37;53.32
54556;BME280;57291;37.520;15.106;2023-04-01T02:16:28;100820.00;;;15.36;53.59
54556;BME280;57291;37.520;15.106;2023-04-01T02:18:58;100816.47;;;15.36;53.77
54556;BME280;57291;37.520;15.106;2023-04-01T02:21:30;100809.06;;;15.36;53.98
54556;BME280;57291;37.520;15.106;2023-04-01T02:24:01;100805.88;;;15.34;54.29
54556;BME280;57291;37.520;15.106;2023-04-01T02:26:29;100803.13;;;15.34;54.55
54556;BME280;57291;37.520;15.106;2023-04-01T02:28:57;100804.41;;;15.37;54.39
54556;BME280;57291;37.520;15.106;2023-04-01T02:31:28;100801.00;;;15.40;54.15
54556;BME280;57291;37.520;15.106;2023-04-01T02:33:56;100800.84;;;15.45;53.88
54556;BME280;57291;37.520;15.106;2023-04-01T02:36:23;100800.19;;;15.48;53.74
54556;BME280;57291;37.520;15.106;2023-04-01T02:38:52;100794.56;;;15.44;53.91
54556;BME280;57291;37.520;15.106;2023-04-01T02:41:21;100790.53;;;15.42;53.93
54556;BME280;57291;37.520;15.106;2023-04-01T02:43:48;100782.97;;;15.39;53.87
54556;BME280;57291;37.520;15.106;2023-04-01T02:46:16;100777.19;;;15.40;53.66
54556;BME280;57291;37.520;15.106;2023-04-01T02:48:43;100776.34;;;15.40;53.72
54556;BME280;57291;37.520;15.106;2023-04-01T02:51:10;100777.97;;;15.41;53.33
54556;BME280;57291;37.520;15.106;2023-04-01T02:53:37;100772.50;;;15.41;53.35
54556;BME280;57291;37.520;15.106;2023-04-01T02:56:04;100765.88;;;15.42;52.96
54556;BME280;57291;37.520;15.106;2023-04-01T02:58:32;100768.63;;;15.42;52.98
54556;BME280;57291;37.520;15.106;2023-04-01T03:00:59;100758.00;;;15.40;52.95
54556;BME280;57291;37.520;15.106;2023-04-01T03:03:26;100769.13;;;15.44;52.86
54556;BME280;57291;37.520;15.106;2023-04-01T03:05:53;100771.66;;;15.49;52.84
54556;BME280;57291;37.520;15.106;2023-04-01T03:08:23;100776.97;;;15.45;52.84
54556;BME280;57291;37.520;15.106;2023-04-01T03:10:50;100780.53;;;15.46;52.91
54556;BME280;57291;37.520;15.106;2023-04-01T03:13:17;100772.97;;;15.43;53.00
54556;BME280;57291;37.520;15.106;2023-04-01T03:15:44;100770.22;;;15.43;53.24
54556;BME280;57291;37.520;15.106;2023-04-01T03:18:11;100777.03;;;15.37;53.32
54556;BME280;57291;37.520;15.106;2023-04-01T03:20:39;100761.56;;;15.32;53.72
54556;BME280;57291;37.520;15.106;2023-04-01T03:23:07;100771.72;;;15.32;53.98
54556;BME280;57291;37.520;15.106;2023-04-01T03:25:34;100764.16;;;15.29;54.21
54556;BME280;57291;37.520;15.106;2023-04-01T03:28:02;100767.22;;;15.27;53.98
54556;BME280;57291;37.520;15.106;2023-04-01T03:30:30;100775.91;;;15.29;53.89
54556;BME280;57291;37.520;15.106;2023-04-01T03:32:58;100779.28;;;15.26;53.91
54556;BME280;57291;37.520;15.106;2023-04-01T03:35:27;100780.28;;;15.21;53.93
54556;BME280;57291;37.520;15.106;2023-04-01T03:37:54;100767.72;;;15.20;53.88
54556;BME280;57291;37.520;15.106;2023-04-01T03:40:21;100761.59;;;15.15;53.87
54556;BME280;57291;37.520;15.106;2023-04-01T03:42:49;100765.28;;;15.19;53.83
54556;BME280;57291;37.520;15.106;2023-04-01T03:45:17;100767.09;;;15.15;53.76
54556;BME280;57291;37.520;15.106;2023-04-01T03:47:44;100760.81;;;15.14;53.93
54556;BME280;57291;37.520;15.106;2023-04-01T03:50:12;100769.97;;;15.10;53.90
54556;BME280;57291;37.520;15.106;2023-04-01T03:52:39;100767.56;;;15.08;53.77
54556;BME280;57291;37.520;15.106;2023-04-01T03:55:06;100779.66;;;15.07;53.74
54556;BME280;57291;37.520;15.106;2023-04-01T03:57:36;100766.28;;;15.06;53.81
54556;BME280;57291;37.520;15.106;2023-04-01T04:00:14;100775.94;;;15.03;53.84
54556;BME280;57291;37.520;15.106;2023-04-01T04:02:44;100781.75;;;15.01;53.82
54556;BME280;57291;37.520;15.106;2023-04-01T04:05:17;100773.19;;;15.03;53.79
54556;BME280;57291;37.520;15.106;2023-04-01T04:07:44;100780.31;;;15.04;53.79
54556;BME280;57291;37.520;15.106;2023-04-01T04:10:11;100781.41;;;15.12;53.74
54556;BME280;57291;37.520;15.106;2023-04-01T04:12:38;100793.81;;;15.09;53.70
54556;BME280;57291;37.520;15.106;2023-04-01T04:15:08;100784.00;;;15.08;53.71
54556;BME280;57291;37.520;15.106;2023-04-01T04:17:36;100778.84;;;15.07;54.16
54556;BME280;57291;37.520;15.106;2023-04-01T04:20:03;100779.16;;;15.05;54.18
54556;BME280;57291;37.520;15.106;2023-04-01T04:22:31;100780.31;;;15.04;54.29
54556;BME280;57291;37.520;15.106;2023-04-01T04:24:58;100779.16;;;15.05;54.34
54556;BME280;57291;37.520;15.106;2023-04-01T04:27:25;100781.41;;;15.03;54.20
54556;BME280;57291;37.520;15.106;2023-04-01T04:30:05;100784.16;;;15.03;53.99
54556;BME280;57291;37.520;15.106;2023-04-01T04:32:33;100776.44;;;15.05;54.05
54556;BME280;57291;37.520;15.106;2023-04-01T04:35:01;100785.44;;;15.06;53.80
54556;BME280;57291;37.520;15.106;2023-04-01T04:37:29;100794.13;;;15.16;53.52
54556;BME280;57291;37.520;15.106;2023-04-01T04:39:56;100796.22;;;15.19;53.32
54556;BME280;57291;37.520;15.106;2023-04-01T04:42:23;100797.50;;;15.22;53.34
54556;BME280;57291;37.520;15.106;2023-04-01T04:44:55;100806.22;;;15.24;53.27
54556;BME280;57291;37.520;15.106;2023-04-01T04:47:22;100801.53;;;15.24;53.33
54556;BME280;57291;37.520;15.106;2023-04-01T04:49:50;100801.19;;;15.26;53.28
54556;BME280;57291;37.520;15.106;2023-04-01T04:52:18;100806.66;;;15.35;53.11
54556;BME280;57291;37.520;15.106;2023-04-01T04:54:45;100823.59;;;15.37;53.16
54556;BME280;57291;37.520;15.106;2023-04-01T04:57:12;100825.53;;;15.28;53.27
54556;BME280;57291;37.520;15.106;2023-04-01T04:59:45;100830.66;;;15.29;53.35
54556;BME280;57291;37.520;15.106;2023-04-01T05:02:18;100828.41;;;15.31;53.64
54556;BME280;57291;37.520;15.106;2023-04-01T05:04:46;100839.19;;;15.36;53.77
54556;BME280;57291;37.520;15.106;2023-04-01T05:07:14;100843.38;;;15.42;53.63
54556;BME280;57291;37.520;15.106;2023-04-01T05:09:41;100833.06;;;15.48;53.48
54556;BME280;57291;37.520;15.106;2023-04-01T05:12:08;100837.69;;;15.56;53.17
54556;BME280;57291;37.520;15.106;2023-04-01T05:14:57;100835.28;;;15.72;52.75
54556;BME280;57291;37.520;15.106;2023-04-01T05:17:25;100836.41;;;15.80;52.37
54556;BME280;57291;37.520;15.106;2023-04-01T05:19:52;100841.03;;;15.88;52.23
54556;BME280;57291;37.520;15.106;2023-04-01T05:22:21;100834.06;;;15.99;51.74
54556;BME280;57291;37.520;15.106;2023-04-01T05:24:49;100834.34;;;16.06;51.63
54556;BME280;57291;37.520;15.106;2023-04-01T05:27:17;100831.91;;;16.13;51.25
54556;BME280;57291;37.520;15.106;2023-04-01T05:29:44;100840.75;;;16.19;51.04
54556;BME280;57291;37.520;15.106;2023-04-01T05:32:34;100845.72;;;16.26;51.11
54556;BME280;57291;37.520;15.106;2023-04-01T05:35:02;100849.06;;;16.31;50.85
54556;BME280;57291;37.520;15.106;2023-04-01T05:37:29;100850.81;;;16.36;50.97
54556;BME280;57291;37.520;15.106;2023-04-01T05:39:57;100854.63;;;16.44;50.71
54556;BME280;57291;37.520;15.106;2023-04-01T05:42:25;100857.94;;;16.58;50.70
54556;BME280;57291;37.520;15.106;2023-04-01T05:44:53;100856.03;;;16.58;50.53
54556;BME280;57291;37.520;15.106;2023-04-01T05:47:39;100853.94;;;16.55;50.40
54556;BME280;57291;37.520;15.106;2023-04-01T05:50:06;100868.88;;;16.67;50.23
54556;BME280;57291;37.520;15.106;2023-04-01T05:52:33;100862.75;;;17.11;49.85
54556;BME280;57291;37.520;15.106;2023-04-01T05:55:01;100868.34;;;18.15;47.04
54556;BME280;57291;37.520;15.106;2023-04-01T05:57:30;100860.63;;;18.69;45.61
54556;BME280;57291;37.520;15.106;2023-04-01T05:59:57;100872.25;;;19.43;44.89
54556;BME280;57291;37.520;15.106;2023-04-01T06:02:24;100864.31;;;20.33;42.98
54556;BME280;57291;37.520;15.106;2023-04-01T06:05:11;100866.75;;;21.05;40.05
54556;BME280;57291;37.520;15.106;2023-04-01T06:07:39;100856.06;;;21.04;40.06
54556;BME280;57291;37.520;15.106;2023-04-01T06:10:18;100855.03;;;21.51;40.20
54556;BME280;57291;37.520;15.106;2023-04-01T06:27:24;100870.31;;;20.87;40.66
54556;BME280;57291;37.520;15.106;2023-04-01T06:29:58;100874.22;;;20.19;42.13
54556;BME280;57291;37.520;15.106;2023-04-01T06:32:49;100891.09;;;19.70;42.94
54556;BME280;57291;37.520;15.106;2023-04-01T06:35:48;100879.25;;;19.41;44.00
54556;BME280;57291;37.520;15.106;2023-04-01T06:38:25;100881.38;;;19.32;44.13
54556;BME280;57291;37.520;15.106;2023-04-01T06:56:00;100908.47;;;19.30;45.25
54556;BME280;57291;37.520;15.106;2023-04-01T06:59:22;100905.03;;;19.33;45.54
54556;BME280;57291;37.520;15.106;2023-04-01T07:04:40;100913.63;;;19.31;45.89
54556;BME280;57291;37.520;15.106;2023-04-01T07:07:24;100913.25;;;19.45;45.78
54556;BME280;57291;37.520;15.106;2023-04-01T07:09:59;100920.25;;;19.42;45.70
54556;BME280;57291;37.520;15.106;2023-04-01T07:12:38;100918.84;;;19.77;45.40
54556;BME280;57291;37.520;15.106;2023-04-01T07:19:02;100916.97;;;20.25;45.62
54556;BME280;57291;37.520;15.106;2023-04-01T07:21:49;100909.56;;;21.50;42.52
54556;BME280;57291;37.520;15.106;2023-04-01T07:24:40;100911.84;;;22.86;39.96
54556;BME280;57291;37.520;15.106;2023-04-01T07:27:12;100912.50;;;23.33;39.05
54556;BME280;57291;37.520;15.106;2023-04-01T07:29:41;100909.66;;;23.26;38.89
54556;BME280;57291;37.520;15.106;2023-04-01T07:35:14;100894.59;;;22.70;40.14
54556;BME280;57291;37.520;15.106;2023-04-01T07:43:33;100894.53;;;23.53;38.98
54556;BME280;57291;37.520;15.106;2023-04-01T07:49:14;100895.41;;;24.43;36.36
54556;BME280;57291;37.520;15.106;2023-04-01T07:58:04;100892.91;;;25.91;34.17
54556;BME280;57291;37.520;15.106;2023-04-01T08:01:01;100884.84;;;25.50;34.31
54556;BME280;57291;37.520;15.106;2023-04-01T08:06:31;100886.50;;;24.23;36.30
54556;BME280;57291;37.520;15.106;2023-04-01T08:12:21;100879.38;;;24.25;36.10
54556;BME280;57291;37.520;15.106;2023-04-01T08:15:21;100869.31;;;24.58;35.18
54556;BME280;57291;37.520;15.106;2023-04-01T08:24:13;100871.31;;;23.69;36.61
54556;BME280;57291;37.520;15.106;2023-04-01T08:26:49;100862.78;;;23.13;37.48
54556;BME280;57291;37.520;15.106;2023-04-01T08:29:48;100866.03;;;23.23;37.13
54556;BME280;57291;37.520;15.106;2023-04-01T08:32:29;100873.78;;;23.40;36.83
54556;BME280;57291;37.520;15.106;2023-04-01T08:35:34;100879.19;;;23.63;36.75
54556;BME280;57291;37.520;15.106;2023-04-01T08:38:23;100881.50;;;23.24;36.70
54556;BME280;57291;37.520;15.106;2023-04-01T08:41:01;100884.88;;;23.10;37.15
54556;BME280;57291;37.520;15.106;2023-04-01T08:47:38;100884.69;;;23.59;36.40
54556;BME280;57291;37.520;15.106;2023-04-01T08:53:07;100871.88;;;24.29;35.58
54556;BME280;57291;37.520;15.106;2023-04-01T08:59:32;100867.19;;;25.07;34.83
54556;BME280;57291;37.520;15.106;2023-04-01T09:02:42;100858.16;;;25.24;33.80
54556;BME280;57291;37.520;15.106;2023-04-01T09:06:17;100863.25;;;25.11;34.47
54556;BME280;57291;37.520;15.106;2023-04-01T09:19:24;100835.72;;;23.37;37.37
54556;BME280;57291;37.520;15.106;2023-04-01T09:28:27;100825.31;;;23.27;39.13
54556;BME280;57291;37.520;15.106;2023-04-01T09:36:46;100819.91;;;23.04;40.39
54556;BME280;57291;37.520;15.106;2023-04-01T09:39:30;100814.19;;;22.63;42.20
54556;BME280;57291;37.520;15.106;2023-04-01T09:45:49;100812.81;;;22.80;42.67
54556;BME280;57291;37.520;15.106;2023-04-01T09:51:26;100795.81;;;23.90;39.13
54556;BME280;57291;37.520;15.106;2023-04-01T10:34:05;100725.59;;;26.77;31.52
54556;BME280;57291;37.520;15.106;2023-04-01T10:36:58;100712.75;;;26.94;31.24
54556;BME280;57291;37.520;15.106;2023-04-01T10:40:12;100710.72;;;27.05;30.29
54556;BME280;57291;37.520;15.106;2023-04-01T10:55:31;100699.44;;;27.23;31.82
54556;BME280;57291;37.520;15.106;2023-04-01T11:01:51;100708.75;;;27.02;31.26
54556;BME280;57291;37.520;15.106;2023-04-01T11:11:13;100714.19;;;26.39;33.01
54556;BME280;57291;37.520;15.106;2023-04-01T11:20:02;100691.50;;;27.66;24.57
54556;BME280;57291;37.520;15.106;2023-04-01T11:34:19;100711.53;;;25.28;37.78
54556;BME280;57291;37.520;15.106;2023-04-01T11:36:57;100707.09;;;25.06;38.21
54556;BME280;57291;37.520;15.106;2023-04-01T11:39:33;100689.19;;;24.78;40.20
54556;BME280;57291;37.520;15.106;2023-04-01T11:51:41;100716.28;;;23.63;44.69
54556;BME280;57291;37.520;15.106;2023-04-01T12:05:58;100693.63;;;25.11;36.45
54556;BME280;57291;37.520;15.106;2023-04-01T12:14:05;100685.41;;;24.34;42.38
54556;BME280;57291;37.520;15.106;2023-04-01T12:30:40;100686.69;;;24.48;38.83
54556;BME280;57291;37.520;15.106;2023-04-01T12:33:54;100690.19;;;24.34;39.25
54556;BME280;57291;37.520;15.106;2023-04-01T12:51:10;100688.75;;;23.37;43.04
54556;BME280;57291;37.520;15.106;2023-04-01T13:02:19;100693.91;;;23.42;41.52
54556;BME280;57291;37.520;15.106;2023-04-01T13:15:52;100655.38;;;22.89;43.41
54556;BME280;57291;37.520;15.106;2023-04-01T13:24:49;100637.72;;;23.52;41.11
54556;BME280;57291;37.520;15.106;2023-04-01T13:29:34;100640.19;;;23.13;45.62
54556;BME280;57291;37.520;15.106;2023-04-01T13:41:06;100630.75;;;22.13;48.83
54556;BME280;57291;37.520;15.106;2023-04-01T13:53:28;100636.22;;;22.06;48.76
54556;BME280;57291;37.520;15.106;2023-04-01T13:55:39;100625.50;;;21.74;49.43
54556;BME280;57291;37.520;15.106;2023-04-01T14:01:04;100638.84;;;21.68;49.33
54556;BME280;57291;37.520;15.106;2023-04-01T14:28:47;100653.13;;;20.78;50.19
54556;BME280;57291;37.520;15.106;2023-04-01T14:37:25;100662.59;;;20.58;48.89
54556;BME280;57291;37.520;15.106;2023-04-01T14:47:51;100653.44;;;20.34;48.46
54556;BME280;57291;37.520;15.106;2023-04-01T14:50:24;100655.75;;;20.32;47.75
54556;BME280;57291;37.520;15.106;2023-04-01T14:58:12;100641.81;;;20.25;48.26
54556;BME280;57291;37.520;15.106;2023-04-01T15:03:20;100643.38;;;20.26;48.49
54556;BME280;57291;37.520;15.106;2023-04-01T15:14:24;100656.19;;;20.34;48.05
54556;BME280;57291;37.520;15.106;2023-04-01T15:29:21;100631.03;;;19.50;51.46
54556;BME280;57291;37.520;15.106;2023-04-01T15:37:41;100647.91;;;19.80;51.06
54556;BME280;57291;37.520;15.106;2023-04-01T15:45:49;100640.72;;;19.59;51.82
54556;BME280;57291;37.520;15.106;2023-04-01T15:51:19;100661.03;;;19.35;53.58
54556;BME280;57291;37.520;15.106;2023-04-01T16:03:15;100646.56;;;18.79;57.24
54556;BME280;57291;37.520;15.106;2023-04-01T16:16:24;100636.50;;;18.70;58.81
54556;BME280;57291;37.520;15.106;2023-04-01T16:21:50;100627.41;;;18.54;59.75
54556;BME280;57291;37.520;15.106;2023-04-01T16:24:23;100614.81;;;18.53;59.43
54556;BME280;57291;37.520;15.106;2023-04-01T16:32:41;100626.25;;;18.27;58.42
54556;BME280;57291;37.520;15.106;2023-04-01T16:43:51;100614.09;;;18.28;57.56
54556;BME280;57291;37.520;15.106;2023-04-01T16:46:35;100622.84;;;18.18;56.80
54556;BME280;57291;37.520;15.106;2023-04-01T16:59:57;100643.88;;;17.98;58.92
54556;BME280;57291;37.520;15.106;2023-04-01T17:02:35;100633.84;;;17.77;59.71
54556;BME280;57291;37.520;15.106;2023-04-01T17:05:08;100627.56;;;17.77;59.89
54556;BME280;57291;37.520;15.106;2023-04-01T17:08:03;100624.63;;;17.73;59.58
54556;BME280;57291;37.520;15.106;2023-04-01T17:13:23;100645.59;;;17.53;60.49
54556;BME280;57291;37.520;15.106;2023-04-01T17:30:03;100642.84;;;17.17;63.18
54556;BME280;57291;37.520;15.106;2023-04-01T17:35:35;100632.34;;;17.19;63.29
54556;BME280;57291;37.520;15.106;2023-04-01T17:38:27;100633.00;;;17.16;63.61
54556;BME280;57291;37.520;15.106;2023-04-01T17:43:52;100629.34;;;17.11;63.62
54556;BME280;57291;37.520;15.106;2023-04-01T17:46:38;100633.22;;;17.10;63.62
54556;BME280;57291;37.520;15.106;2023-04-01T17:52:32;100629.34;;;17.11;66.72
54556;BME280;57291;37.520;15.106;2023-04-01T18:13:02;100648.72;;;16.49;75.92
54556;BME280;57291;37.520;15.106;2023-04-01T18:15:42;100649.16;;;16.51;75.72
54556;BME280;57291;37.520;15.106;2023-04-01T18:21:55;100648.38;;;16.50;75.10
54556;BME280;57291;37.520;15.106;2023-04-01T18:24:40;100650.31;;;16.50;74.21
54556;BME280;57291;37.520;15.106;2023-04-01T18:30:39;100656.06;;;16.57;73.80
54556;BME280;57291;37.520;15.106;2023-04-01T18:33:29;100648.44;;;16.62;73.32
54556;BME280;57291;37.520;15.106;2023-04-01T18:36:18;100646.41;;;16.72;72.48
54556;BME280;57291;37.520;15.106;2023-04-01T18:41:54;100651.38;;;16.78;73.09
54556;BME280;57291;37.520;15.106;2023-04-01T18:44:56;100652.50;;;16.77;73.20
54556;BME280;57291;37.520;15.106;2023-04-01T18:52:27;100665.00;;;16.66;73.51
54556;BME280;57291;37.520;15.106;2023-04-01T18:57:51;100664.34;;;16.69;73.26
54556;BME280;57291;37.520;15.106;2023-04-01T19:00:38;100669.47;;;16.71;72.85
54556;BME280;57291;37.520;15.106;2023-04-01T19:03:16;100674.00;;;16.75;72.82
54556;BME280;57291;37.520;15.106;2023-04-01T19:05:47;100671.50;;;16.82;72.72
54556;BME280;57291;37.520;15.106;2023-04-01T19:08:43;100666.94;;;16.86;71.69
54556;BME280;57291;37.520;15.106;2023-04-01T19:21:58;100671.91;;;16.72;70.31
54556;BME280;57291;37.520;15.106;2023-04-01T19:27:29;100671.53;;;16.74;70.71
54556;BME280;57291;37.520;15.106;2023-04-01T19:33:02;100676.75;;;16.75;71.22
54556;BME280;57291;37.520;15.106;2023-04-01T19:35:41;100671.69;;;16.77;71.23
54556;BME280;57291;37.520;15.106;2023-04-01T19:38:22;100674.44;;;16.77;71.50
54556;BME280;57291;37.520;15.106;2023-04-01T19:40:57;100672.50;;;16.78;71.22
54556;BME280;57291;37.520;15.106;2023-04-01T19:43:50;100673.44;;;16.82;70.61
54556;BME280;57291;37.520;15.106;2023-04-01T19:46:28;100679.72;;;16.82;70.22
54556;BME280;57291;37.520;15.106;2023-04-01T19:49:28;100684.44;;;16.82;69.38
54556;BME280;57291;37.520;15.106;2023-04-01T19:55:42;100701.59;;;16.91;68.65
54556;BME280;57291;37.520;15.106;2023-04-01T19:58:31;100695.41;;;16.94;68.14
54556;BME280;57291;37.520;15.106;2023-04-01T20:01:01;100691.19;;;16.97;67.92
54556;BME280;57291;37.520;15.106;2023-04-01T20:03:50;100690.41;;;16.96;67.08
54556;BME280;57291;37.520;15.106;2023-04-01T20:06:38;100685.38;;;16.98;66.98
54556;BME280;57291;37.520;15.106;2023-04-01T20:12:06;100667.28;;;16.97;65.92
54556;BME280;57291;37.520;15.106;2023-04-01T20:19:55;100666.47;;;16.84;66.15
54556;BME280;57291;37.520;15.106;2023-04-01T20:25:00;100665.88;;;16.79;65.44
54556;BME280;57291;37.520;15.106;2023-04-01T20:27:36;100672.19;;;16.79;65.06
54556;BME280;57291;37.520;15.106;2023-04-01T20:34:10;100663.16;;;16.79;64.74
54556;BME280;57291;37.520;15.106;2023-04-01T20:45:16;100658.72;;;16.65;65.19
54556;BME280;57291;37.520;15.106;2023-04-01T20:48:18;100651.16;;;16.62;65.68
54556;BME280;57291;37.520;15.106;2023-04-01T20:51:31;100659.97;;;16.68;66.36
54556;BME280;57291;37.520;15.106;2023-04-01T21:07:54;100664.94;;;16.75;68.12
54556;BME280;57291;37.520;15.106;2023-04-01T21:13:47;100652.63;;;16.60;68.31
54556;BME280;57291;37.520;15.106;2023-04-01T21:47:16;100670.38;;;16.41;70.67
54556;BME280;57291;37.520;15.106;2023-04-01T22:01:14;100676.88;;;16.37;71.57
54556;BME280;57291;37.520;15.106;2023-04-01T22:04:10;100661.91;;;16.34;71.30
54556;BME280;57291;37.520;15.106;2023-04-01T22:06:50;100664.78;;;16.38;71.31
54556;BME280;57291;37.520;15.106;2023-04-01T22:09:30;100662.03;;;16.38;71.90
54556;BME280;57291;37.520;15.106;2023-04-01T22:12:07;100664.19;;;16.32;72.83
54556;BME280;57291;37.520;15.106;2023-04-01T22:17:40;100681.63;;;16.28;73.55
54556;BME280;57291;37.520;15.106;2023-04-01T22:20:31;100689.06;;;16.27;73.29
54556;BME280;57291;37.520;15.106;2023-04-01T22:28:38;100679.38;;;16.30;73.19
54556;BME280;57291;37.520;15.106;2023-04-01T22:31:13;100669.19;;;16.30;73.28
54556;BME280;57291;37.520;15.106;2023-04-01T22:39:14;100667.72;;;16.33;73.71
54556;BME280;57291;37.520;15.106;2023-04-01T22:45:59;100667.06;;;16.36;72.60
54556;BME280;57291;37.520;15.106;2023-04-01T22:50:45;100673.41;;;16.28;73.31
54556;BME280;57291;37.520;15.106;2023-04-01T22:55:50;100676.28;;;16.31;73.68
54556;BME280;57291;37.520;15.106;2023-04-01T22:58:26;100672.41;;;16.32;73.78
54556;BME280;57291;37.520;15.106;2023-04-01T23:01:06;100669.06;;;16.27;73.95
54556;BME280;57291;37.520;15.106;2023-04-01T23:03:38;100668.94;;;16.23;74.18
54556;BME280;57291;37.520;15.106;2023-04-01T23:06:20;100668.59;;;16.25;74.07
54556;BME280;57291;37.520;15.106;2023-04-01T23:09:01;100677.28;;;16.27;73.90
54556;BME280;57291;37.520;15.106;2023-04-01T23:12:07;100671.81;;;16.27;73.54
54556;BME280;57291;37.520;15.106;2023-04-01T23:14:37;100678.09;;;16.27;73.23
54556;BME280;57291;37.520;15.106;2023-04-01T23:17:25;100670.22;;;16.26;72.70
54556;BME280;57291;37.520;15.106;2023-04-01T23:23:08;100673.75;;;16.26;71.46
54556;BME280;57291;37.520;15.106;2023-04-01T23:26:09;100691.47;;;16.29;71.03
54556;BME280;57291;37.520;15.106;2023-04-01T23:28:47;100688.88;;;16.32;70.99
54556;BME280;57291;37.520;15.106;2023-04-01T23:31:44;100694.50;;;16.36;70.70
54556;BME280;57291;37.520;15.106;2023-04-01T23:36:43;100692.53;;;16.36;70.26
54556;BME280;57291;37.520;15.106;2023-04-01T23:41:47;100679.28;;;16.38;69.72
54556;BME280;57291;37.520;15.106;2023-04-01T23:44:16;100692.19;;;16.38;69.49
54556;BME280;57291;37.520;15.106;2023-04-01T23:46:46;100668.66;;;16.37;69.11
54556;BME280;57291;37.520;15.106;2023-04-01T23:49:22;100662.69;;;16.35;68.93
54556;BME280;57291;37.520;15.106;2023-04-01T23:51:58;100661.09;;;16.34;68.83